Time;durP1;ratioP1;P1;durP2;ratioP2;P2;SDS_P1;SDS_P2;PMS_P1;PMS_P2;Temp;Humidity;BMP_temperature;BMP_pressure;BME280_temperature;BME280_humidity;BME280_pressure;Samples;Min_cycle;Max_cycle;Signal;HPM_P1;HPM_P2
2022/04/01 00:02:05;;;;;;;;;;;;;;;21.20;37.89;99903.22;4975663;28;4242;-61
2022/04/01 00:04:32;;;;;;;;;;;;;;;21.27;37.85;99896.22;4975387;28;4268;-60
2022/04/01 00:06:58;;;;;;;;;;;;;;;21.19;37.96;99890.25;4972751;28;4180;-60
2022/04/01 00:09:24;;;;;;;;;;;;;;;21.20;37.89;99903.22;4974845;28;4185;-60
2022/04/01 00:11:51;;;;;;;;;;;;;;;21.18;37.93;99899.56;4966985;28;4238;-61
2022/04/01 00:14:17;;;;;;;;;;;;;;;21.34;37.59;99894.25;4973129;28;4218;-60
2022/04/01 00:16:44;;;;;;;;;;;;;;;21.19;37.88;99896.00;4977582;28;4357;-61
2022/04/01 00:19:14;;;;;;;;;;;;;;;21.17;37.87;99892.34;4974889;28;4163;-60
2022/04/01 00:21:40;;;;;;;;;;;;;;;21.18;38.07;99888.78;4975308;28;4238;-60
2022/04/01 00:24:06;;;;;;;;;;;;;;;21.17;37.99;99890.19;4971062;28;4287;-61
2022/04/01 00:26:33;;;;;;;;;;;;;;;21.16;38.10;99891.59;4975498;28;4258;-61
2022/04/01 00:29:00;;;;;;;;;;;;;;;21.14;38.18;99894.41;4970253;28;4340;-60
2022/04/01 00:31:26;;;;;;;;;;;;;;;21.13;38.09;99898.72;4973749;28;4203;-60
2022/04/01 00:34:15;;;;;;;;;;;;;;;21.12;38.05;99897.25;4972250;28;4300;-60
2022/04/01 00:36:39;;;;;;;;;;;;;;;21.12;38.15;99897.25;4973721;28;6871;-60
2022/04/01 00:39:05;;;;;;;;;;;;;;;21.10;38.09;99905.84;4971545;28;5783;-60
2022/04/01 00:41:32;;;;;;;;;;;;;;;21.11;38.02;99907.28;4974246;28;4503;-61
2022/04/01 00:44:14;;;;;;;;;;;;;;;21.08;38.17;99891.38;4956485;28;4462;-60
2022/04/01 00:46:43;;;;;;;;;;;;;;;21.07;38.15;99901.41;4973374;28;4036;-60
2022/04/01 00:49:10;;;;;;;;;;;;;;;21.07;38.19;99898.53;4971901;28;4177;-60
2022/04/01 00:51:37;;;;;;;;;;;;;;;21.09;38.06;99899.31;4964419;28;5350;-60
2022/04/01 00:54:05;;;;;;;;;;;;;;;21.07;38.15;99893.53;4955061;28;4274;-60
2022/04/01 00:56:31;;;;;;;;;;;;;;;21.04;38.08;99894.16;4976422;28;4543;-60
2022/04/01 00:58:58;;;;;;;;;;;;;;;21.03;38.17;99898.44;4972736;28;4214;-61
2022/04/01 01:01:25;;;;;;;;;;;;;;;21.01;38.21;99893.34;4969914;28;4170;-60
2022/04/01 01:03:51;;;;;;;;;;;;;;;21.02;38.24;99894.09;4977853;28;4104;-61
2022/04/01 01:06:18;;;;;;;;;;;;;;;21.01;38.17;99904.88;4973688;28;4520;-60
2022/04/01 01:08:44;;;;;;;;;;;;;;;20.99;38.21;99896.16;4971645;28;4116;-60
2022/04/01 01:11:11;;;;;;;;;;;;;;;21.02;38.23;99899.84;4968789;28;4209;-60
2022/04/01 01:13:38;;;;;;;;;;;;;;;21.02;38.08;99888.31;4972404;28;4070;-60
2022/04/01 01:16:07;;;;;;;;;;;;;;;21.03;38.07;99901.31;4956481;28;4228;-60
2022/04/01 01:18:33;;;;;;;;;;;;;;;21.01;38.01;99907.75;4974621;28;4261;-60
2022/04/01 01:21:00;;;;;;;;;;;;;;;21.04;38.05;99891.25;4968807;28;4073;-60
2022/04/01 01:23:28;;;;;;;;;;;;;;;21.06;38.00;99899.97;4971661;28;4162;-60
2022/04/01 01:25:55;;;;;;;;;;;;;;;21.07;37.85;99904.28;4973981;28;4138;-60
2022/04/01 01:28:22;;;;;;;;;;;;;;;21.03;37.86;99890.53;4951150;28;5534;-60
2022/04/01 01:30:48;;;;;;;;;;;;;;;21.07;37.92;99901.41;4951667;28;4061;-60
2022/04/01 01:33:15;;;;;;;;;;;;;;;21.07;37.90;99895.66;4970512;28;4081;-60
2022/04/01 01:35:42;;;;;;;;;;;;;;;21.06;37.98;99891.31;4974727;28;4176;-60
2022/04/01 01:38:08;;;;;;;;;;;;;;;21.07;38.01;99892.78;4972677;28;5584;-60
2022/04/01 01:40:35;;;;;;;;;;;;;;;21.06;37.94;99888.44;4974549;28;5465;-60
2022/04/01 01:43:02;;;;;;;;;;;;;;;21.05;37.95;99886.97;4975164;28;4592;-60
2022/04/01 01:45:29;;;;;;;;;;;;;;;21.06;37.85;99894.19;4958335;28;4140;-60
2022/04/01 01:47:56;;;;;;;;;;;;;;;21.06;38.02;99897.06;4972645;28;4253;-61
2022/04/01 01:55:52;;;;;;;;;;;;;;;21.03;37.81;99899.16;4975648;28;4510;-60
2022/04/01 01:58:18;;;;;;;;;;;;;;;21.03;37.91;99890.53;4972854;28;4043;-60
2022/04/01 02:00:45;;;;;;;;;;;;;;;21.00;37.89;99888.25;4972769;28;4089;-60
2022/04/01 02:03:12;;;;;;;;;;;;;;;21.04;37.74;99891.25;4972282;28;4203;-60
2022/04/01 02:05:38;;;;;;;;;;;;;;;21.01;37.85;99887.59;4957832;28;4436;-60
2022/04/01 02:08:05;;;;;;;;;;;;;;;21.01;37.82;99895.50;4972795;28;4250;-60
2022/04/01 02:10:32;;;;;;;;;;;;;;;21.00;37.64;99891.16;4957498;28;4268;-59
2022/04/01 02:13:00;;;;;;;;;;;;;;;21.01;37.87;99889.75;4974508;28;4208;-60
2022/04/01 02:15:27;;;;;;;;;;;;;;;21.01;37.80;99895.50;4968098;28;4046;-60
2022/04/01 02:17:53;;;;;;;;;;;;;;;21.02;37.73;99885.44;4973398;28;4533;-60
2022/04/01 02:20:19;;;;;;;;;;;;;;;21.01;37.67;99881.13;4958925;28;4336;-60
2022/04/01 02:22:46;;;;;;;;;;;;;;;21.00;37.81;99882.50;4970888;28;4318;-60
2022/04/01 02:25:15;;;;;;;;;;;;;;;21.04;37.72;99876.88;4957499;28;4220;-60
2022/04/01 02:27:42;;;;;;;;;;;;;;;21.01;37.76;99875.34;4978890;28;5304;-59
2022/04/01 02:30:11;;;;;;;;;;;;;;;20.99;37.77;99883.94;4979097;28;4194;-60
2022/04/01 02:32:47;;;;;;;;;;;;;;;21.00;37.80;99885.38;4979095;28;4232;-60
2022/04/01 02:35:25;;;;;;;;;;;;;;;20.98;37.75;99883.22;4978497;28;4696;-60
2022/04/01 02:37:52;;;;;;;;;;;;;;;21.00;37.86;99885.38;4975881;28;4133;-60
2022/04/01 02:40:18;;;;;;;;;;;;;;;20.99;37.80;99893.28;4977111;28;4182;-60
2022/04/01 02:42:45;;;;;;;;;;;;;;;20.96;37.75;99888.91;4961985;28;4363;-60
2022/04/01 02:45:17;;;;;;;;;;;;;;;20.99;37.74;99889.69;4960826;28;4236;-60
2022/04/01 02:47:43;;;;;;;;;;;;;;;20.99;37.61;99890.41;4973512;28;4252;-60
2022/04/01 02:50:10;;;;;;;;;;;;;;;21.00;37.81;99896.91;4974642;28;4317;-60
2022/04/01 02:52:36;;;;;;;;;;;;;;;21.01;37.73;99892.63;4978979;28;4262;-60
2022/04/01 02:55:05;;;;;;;;;;;;;;;21.00;37.54;99902.66;4974086;28;4264;-60
2022/04/01 02:57:33;;;;;;;;;;;;;;;21.00;37.60;99894.75;4976907;28;4430;-60
2022/04/01 03:00:00;;;;;;;;;;;;;;;21.05;37.66;99892.72;4974609;28;4276;-60
2022/04/01 03:02:28;;;;;;;;;;;;;;;21.03;37.59;99895.56;4973172;28;4410;-60
2022/04/01 03:04:54;;;;;;;;;;;;;;;21.01;37.60;99899.09;4965363;28;5397;-60
2022/04/01 03:07:21;;;;;;;;;;;;;;;21.04;37.45;99906.38;4976542;28;5186;-60
2022/04/01 03:09:47;;;;;;;;;;;;;;;21.03;37.56;99890.53;4972711;28;4172;-60
2022/04/01 03:12:18;;;;;;;;;;;;;;;21.04;37.59;99897.03;4973679;28;4316;-59
2022/04/01 03:14:48;;;;;;;;;;;;;;;21.01;37.59;99889.75;4975634;28;4249;-60
2022/04/01 03:17:33;;;;;;;;;;;;;;;21.01;37.47;99895.50;4974369;28;4992;-60
2022/04/01 03:20:13;;;;;;;;;;;;;;;21.04;37.48;99900.63;4970249;28;4211;-60
2022/04/01 03:22:41;;;;;;;;;;;;;;;21.06;37.42;99905.72;4971915;28;4340;-60
2022/04/01 03:25:09;;;;;;;;;;;;;;;21.05;37.48;99889.84;4959813;28;4273;-60
2022/04/01 03:27:47;;;;;;;;;;;;;;;21.01;37.60;99899.09;4960228;28;5562;-60
2022/04/01 03:30:13;;;;;;;;;;;;;;;21.00;37.58;99897.63;4975949;28;4401;-60
2022/04/01 03:32:40;;;;;;;;;;;;;;;21.01;37.46;99904.13;4978306;28;4255;-60
2022/04/01 03:35:14;;;;;;;;;;;;;;;21.00;37.40;99905.53;4973317;28;4147;-60
2022/04/01 03:37:41;;;;;;;;;;;;;;;20.99;37.45;99904.06;4976984;28;4056;-60
2022/04/01 03:40:11;;;;;;;;;;;;;;;20.97;37.42;99901.13;4975171;28;4157;-60
2022/04/01 03:42:37;;;;;;;;;;;;;;;20.98;37.55;99908.34;4978012;28;4176;-60
2022/04/01 03:45:06;;;;;;;;;;;;;;;21.01;37.51;99909.91;4974504;28;4310;-59
2022/04/01 03:47:59;;;;;;;;;;;;;;;21.02;37.37;99899.84;4964224;28;4143;-60
2022/04/01 03:50:30;;;;;;;;;;;;;;;20.98;37.34;99900.47;4964998;28;5509;-60
2022/04/01 03:53:00;;;;;;;;;;;;;;;21.00;37.28;99896.91;4956570;28;4127;-62
2022/04/01 03:55:27;;;;;;;;;;;;;;;21.00;37.38;99902.66;4974467;28;3984;-60
2022/04/01 03:58:27;;;;;;;;;;;;;;;21.02;37.14;99899.84;4974568;28;4008;-60
2022/04/01 04:01:19;;;;;;;;;;;;;;;21.03;37.16;99901.31;4971027;28;4163;-59
2022/04/01 04:03:47;;;;;;;;;;;;;;;21.02;37.30;99899.84;4959100;28;4190;-59
2022/04/01 04:06:14;;;;;;;;;;;;;;;21.00;37.27;99897.63;4960257;28;4197;-59
2022/04/01 04:08:40;;;;;;;;;;;;;;;21.01;37.13;99904.13;4959248;28;4104;-60
2022/04/01 04:11:06;;;;;;;;;;;;;;;21.00;37.34;99894.03;4974945;28;4135;-60
2022/04/01 04:13:41;;;;;;;;;;;;;;;20.99;37.33;99898.31;4975721;28;4104;-60
2022/04/01 04:16:15;;;;;;;;;;;;;;;21.01;37.33;99901.25;4952437;28;4311;-60
2022/04/01 04:18:43;;;;;;;;;;;;;;;21.00;37.29;99897.63;4973294;28;4182;-60
2022/04/01 04:21:19;;;;;;;;;;;;;;;21.03;37.22;99907.06;4972728;28;4367;-60
2022/04/01 04:23:46;;;;;;;;;;;;;;;21.01;37.21;99915.66;4973235;28;4113;-60
2022/04/01 04:26:16;;;;;;;;;;;;;;;21.00;37.20;99909.13;4974383;28;4130;-60
2022/04/01 04:28:48;;;;;;;;;;;;;;;21.01;37.29;99915.66;4965129;28;4099;-60
2022/04/01 04:31:38;;;;;;;;;;;;;;;21.01;37.12;99915.66;4961620;28;4708;-60
2022/04/01 04:34:10;;;;;;;;;;;;;;;21.01;37.16;99910.63;4956369;28;4185;-60
2022/04/01 04:36:38;;;;;;;;;;;;;;;21.00;37.02;99919.94;4975676;28;4195;-60
2022/04/01 04:39:08;;;;;;;;;;;;;;;21.00;37.19;99923.53;4958148;28;5291;-60
2022/04/01 04:41:35;;;;;;;;;;;;;;;21.00;37.08;99925.69;4958174;28;4099;-60
2022/04/01 04:44:05;;;;;;;;;;;;;;;21.01;37.03;99927.88;4960576;28;4032;-60
2022/04/01 04:46:32;;;;;;;;;;;;;;;21.00;37.08;99931.44;4975029;28;4059;-60
2022/04/01 04:48:59;;;;;;;;;;;;;;;21.02;36.97;99928.63;4956448;28;4103;-60
2022/04/01 04:51:28;;;;;;;;;;;;;;;21.03;36.90;99936.59;4974933;28;5455;-60
2022/04/01 04:54:11;;;;;;;;;;;;;;;21.05;37.09;99933.00;4961650;28;4051;-60
2022/04/01 04:56:41;;;;;;;;;;;;;;;21.06;36.90;99940.97;4957988;28;4245;-60
2022/04/01 04:59:08;;;;;;;;;;;;;;;20.93;37.60;99945.63;4964126;28;4223;-61
2022/04/01 05:01:54;;;;;;;;;;;;;;;20.74;34.13;99940.03;4967944;28;5438;-66
2022/04/01 05:04:26;;;;;;;;;;;;;;;20.88;36.04;99932.53;4964925;28;4100;-57
2022/04/01 05:07:01;;;;;;;;;;;;;;;20.95;36.56;99936.34;4949581;28;4004;-57
2022/04/01 05:09:54;;;;;;;;;;;;;;;21.01;36.60;99939.41;4968153;28;4156;-57
2022/04/01 05:12:32;;;;;;;;;;;;;;;21.08;36.65;99943.19;4939145;28;4181;-57
2022/04/01 05:15:14;;;;;;;;;;;;;;;21.16;36.75;99949.16;4966464;28;4042;-55
2022/04/01 05:17:53;;;;;;;;;;;;;;;21.14;36.98;99943.34;4974605;28;4201;-56
2022/04/01 05:20:23;;;;;;;;;;;;;;;21.17;36.58;99944.16;4970028;28;4079;-58
2022/04/01 05:22:54;;;;;;;;;;;;;;;21.17;37.02;99944.91;4968676;28;4354;-56
2022/04/01 05:25:22;;;;;;;;;;;;;;;21.20;36.95;99948.56;4948696;28;5452;-62
2022/04/01 05:27:50;;;;;;;;;;;;;;;21.05;36.58;99961.78;4970208;28;4005;-53
2022/04/01 05:30:24;;;;;;;;;;;;;;;21.12;35.61;99966.34;4973917;28;4292;-55
2022/04/01 05:33:09;;;;;;;;;;;;;;;21.10;36.66;99969.88;4955771;28;4187;-51
2022/04/01 05:35:38;;;;;;;;;;;;;;;21.10;36.17;99981.41;4955404;28;6716;-55
2022/04/01 05:38:10;;;;;;;;;;;;;;;21.09;36.20;99965.53;4962744;28;4181;-56
2022/04/01 05:40:39;;;;;;;;;;;;;;;21.09;36.09;99973.44;4953091;28;4413;-52
2022/04/01 05:43:07;;;;;;;;;;;;;;;21.08;36.34;99971.97;4960576;28;4210;-55
2022/04/01 05:45:34;;;;;;;;;;;;;;;21.09;36.31;99984.94;4958514;28;4221;-54
2022/04/01 05:48:09;;;;;;;;;;;;;;;21.07;36.62;99988.53;4954990;28;4279;-51
2022/04/01 05:50:37;;;;;;;;;;;;;;;21.03;36.47;99984.78;4971243;28;4079;-54
2022/04/01 05:53:04;;;;;;;;;;;;;;;21.03;36.74;99994.16;4961369;28;4076;-51
2022/04/01 05:55:39;;;;;;;;;;;;;;;20.82;35.37;99992.81;4961121;28;4288;-56
2022/04/01 05:58:06;;;;;;;;;;;;;;;20.59;35.05;99987.75;4960172;28;4353;-56
2022/04/01 06:00:35;;;;;;;;;;;;;;;20.40;34.57;99995.75;4980095;28;4139;-53
2022/04/01 06:03:07;;;;;;;;;;;;;;;20.39;34.45;100002.19;4958991;28;5490;-56
2022/04/01 06:05:39;;;;;;;;;;;;;;;19.95;33.69;99999.28;4963588;28;4425;-57
2022/04/01 06:08:08;;;;;;;;;;;;;;;20.17;33.87;100002.19;4976246;28;5270;-56
2022/04/01 06:10:54;;;;;;;;;;;;;;;20.48;34.48;99998.91;4978236;28;4225;-53
2022/04/01 06:13:49;;;;;;;;;;;;;;;20.94;34.45;100015.47;4975931;28;4215;-62
2022/04/01 06:16:58;;;;;;;;;;;;;;;20.82;34.91;100015.06;4970166;28;5236;-58
2022/04/01 06:19:31;;;;;;;;;;;;;;;20.88;34.51;100012.38;4963412;28;4516;-58
2022/04/01 06:22:04;;;;;;;;;;;;;;;20.88;34.34;100006.63;4974720;28;4403;-59
2022/04/01 06:24:52;;;;;;;;;;;;;;;20.91;34.87;100013.91;4973694;28;4001;-57
2022/04/01 06:27:25;;;;;;;;;;;;;;;20.90;35.15;100004.56;4972563;28;5119;-59
2022/04/01 06:30:05;;;;;;;;;;;;;;;20.95;35.18;100011.16;4978371;28;5477;-59
2022/04/01 06:32:35;;;;;;;;;;;;;;;20.93;35.27;100008.94;4969306;28;6026;-58
2022/04/01 06:35:04;;;;;;;;;;;;;;;20.93;35.29;100011.81;4973478;28;4129;-59
2022/04/01 06:37:59;;;;;;;;;;;;;;;20.90;35.44;100018.94;4977202;28;4223;-57
2022/04/01 06:40:28;;;;;;;;;;;;;;;20.91;35.66;100022.53;4976531;28;4035;-57
2022/04/01 06:42:55;;;;;;;;;;;;;;;20.89;35.77;100019.59;4980057;28;3996;-58
2022/04/01 06:45:33;;;;;;;;;;;;;;;20.90;35.72;100018.22;4975171;28;4141;-58
2022/04/01 06:48:23;;;;;;;;;;;;;;;20.88;36.04;100021.75;4977646;28;4170;-58
2022/04/01 06:51:18;;;;;;;;;;;;;;;20.88;36.18;100021.03;4973208;28;5261;-58
2022/04/01 06:54:03;;;;;;;;;;;;;;;20.93;35.91;100017.59;4972540;28;4434;-57
2022/04/01 06:56:49;;;;;;;;;;;;;;;20.94;36.11;100012.59;4980297;28;4618;-58
2022/04/01 06:59:17;;;;;;;;;;;;;;;20.93;36.13;100014.69;4978498;28;4042;-57
2022/04/01 07:01:44;;;;;;;;;;;;;;;20.93;36.15;100020.47;4978449;28;4227;-57
2022/04/01 07:04:11;;;;;;;;;;;;;;;20.94;36.30;100021.22;4974511;28;4548;-57
2022/04/01 07:06:38;;;;;;;;;;;;;;;20.95;36.30;100019.06;4976730;28;4082;-57
2022/04/01 07:09:04;;;;;;;;;;;;;;;20.95;36.26;100033.47;4976769;28;4317;-57
2022/04/01 07:11:31;;;;;;;;;;;;;;;20.97;36.31;100019.13;4976186;28;4451;-56
2022/04/01 07:13:58;;;;;;;;;;;;;;;21.01;36.26;100010.63;4973263;28;4262;-57
2022/04/01 07:16:24;;;;;;;;;;;;;;;21.00;36.43;100017.78;4974237;28;4229;-57
2022/04/01 07:18:51;;;;;;;;;;;;;;;21.02;36.24;100020.72;4978888;28;3974;-58
2022/04/01 07:21:17;;;;;;;;;;;;;;;21.00;36.38;100023.53;4979296;28;5046;-58
2022/04/01 07:23:44;;;;;;;;;;;;;;;21.02;36.37;100026.47;4977683;28;4167;-58
2022/04/01 07:26:10;;;;;;;;;;;;;;;21.07;36.37;100039.56;4978902;28;5784;-59
2022/04/01 07:28:37;;;;;;;;;;;;;;;21.02;36.44;100032.22;4979830;28;4443;-59
2022/04/01 07:34:21;;;;;;;;;;;;;;;20.81;34.55;100039.50;4970039;28;4226;-58
2022/04/01 07:36:48;;;;;;;;;;;;;;;20.89;35.24;100036.88;4969802;28;3998;-53
2022/04/01 07:39:15;;;;;;;;;;;;;;;21.01;36.10;100028.63;4956156;28;5264;-55
2022/04/01 07:41:42;;;;;;;;;;;;;;;21.12;36.77;100032.56;4971035;28;4438;-52
2022/04/01 07:44:08;;;;;;;;;;;;;;;21.18;37.17;100026.97;4971811;28;4281;-57
2022/04/01 07:46:34;;;;;;;;;;;;;;;21.28;37.67;100029.41;4977018;28;4399;-53
2022/04/01 07:49:01;;;;;;;;;;;;;;;21.25;38.03;100025.72;4975959;28;4170;-54
2022/04/01 07:51:27;;;;;;;;;;;;;;;20.92;38.66;100036.28;4967732;28;4058;-55
2022/04/01 07:53:53;;;;;;;;;;;;;;;21.01;38.96;100042.28;4973604;28;4148;-58
2022/04/01 07:56:20;;;;;;;;;;;;;;;21.06;38.92;100043.88;4970610;28;5416;-57
2022/04/01 07:58:46;;;;;;;;;;;;;;;21.14;38.30;100044.09;4976551;28;4093;-58
2022/04/01 08:01:13;;;;;;;;;;;;;;;21.25;37.49;100048.03;4969003;28;4193;-59
2022/04/01 08:03:44;;;;;;;;;;;;;;;21.36;37.89;100052.69;4973342;28;4226;-59
2022/04/01 08:06:10;;;;;;;;;;;;;;;21.31;38.26;100063.34;4967756;28;4266;-59
2022/04/01 08:08:38;;;;;;;;;;;;;;;21.21;38.61;100053.66;4971546;28;4318;-61
2022/04/01 08:11:04;;;;;;;;;;;;;;;21.14;36.78;100052.75;4978644;28;4279;-58
2022/04/01 08:13:31;;;;;;;;;;;;;;;21.19;37.30;100057.22;4976519;28;4144;-58
2022/04/01 08:15:57;;;;;;;;;;;;;;;21.26;37.77;100061.75;4977273;28;4146;-55
2022/04/01 08:18:24;;;;;;;;;;;;;;;21.30;37.84;100067.66;4968167;28;4178;-56
2022/04/01 08:20:50;;;;;;;;;;;;;;;21.33;37.81;100069.16;4974758;28;4187;-58
2022/04/01 08:23:18;;;;;;;;;;;;;;;21.31;38.08;100069.09;4970935;28;4089;-63
2022/04/01 08:25:44;;;;;;;;;;;;;;;21.25;36.55;100060.28;4972734;28;5567;-58
2022/04/01 08:28:10;;;;;;;;;;;;;;;21.22;37.01;100073.16;4979747;28;4198;-59
2022/04/01 08:30:39;;;;;;;;;;;;;;;21.26;37.31;100070.41;4973220;28;3986;-58
2022/04/01 08:33:05;;;;;;;;;;;;;;;21.33;37.44;100066.28;4975848;28;4123;-57
2022/04/01 08:35:33;;;;;;;;;;;;;;;21.32;37.55;100070.56;4970713;28;4575;-59
2022/04/01 08:37:59;;;;;;;;;;;;;;;21.34;37.76;100067.75;4971850;28;4168;-56
2022/04/01 08:40:26;;;;;;;;;;;;;;;21.37;37.60;100068.53;4969379;28;4393;-57
2022/04/01 08:42:53;;;;;;;;;;;;;;;21.40;37.64;100066.47;4973333;28;4205;-56
2022/04/01 08:45:19;;;;;;;;;;;;;;;21.38;37.76;100075.06;4967506;28;4389;-56
2022/04/01 08:47:46;;;;;;;;;;;;;;;21.40;37.72;100086.63;4971479;28;4127;-56
2022/04/01 08:50:12;;;;;;;;;;;;;;;21.40;37.77;100078.00;4976234;28;3996;-56
2022/04/01 08:52:39;;;;;;;;;;;;;;;21.40;37.83;100075.13;4973943;28;4260;-57
2022/04/01 08:55:06;;;;;;;;;;;;;;;21.42;37.91;100096.09;4970747;28;4222;-56
2022/04/01 08:57:33;;;;;;;;;;;;;;;21.45;37.72;100088.25;4969401;28;4636;-54
2022/04/01 09:00:00;;;;;;;;;;;;;;;21.43;37.95;100088.19;4967661;28;4443;-58
2022/04/01 09:02:27;;;;;;;;;;;;;;;21.33;36.86;100092.22;4972304;28;4086;-56
2022/04/01 09:05:03;;;;;;;;;;;;;;;21.27;37.40;100086.25;4971087;28;4079;-54
2022/04/01 09:07:29;;;;;;;;;;;;;;;21.33;37.60;100095.09;4974083;28;4220;-56
2022/04/01 09:10:06;;;;;;;;;;;;;;;21.34;37.70;100096.53;4974016;28;5322;-56
2022/04/01 09:12:48;;;;;;;;;;;;;;;21.36;37.78;100092.28;4970882;28;4119;-56
2022/04/01 09:15:14;;;;;;;;;;;;;;;21.40;37.91;100095.28;4970318;28;4516;-55
2022/04/01 09:17:41;;;;;;;;;;;;;;;21.36;37.76;100098.03;4974023;28;4471;-56
2022/04/01 09:20:09;;;;;;;;;;;;;;;21.32;37.72;100096.47;4974085;28;3986;-56
2022/04/01 09:22:36;;;;;;;;;;;;;;;21.33;37.80;100089.31;4978594;28;4141;-56
2022/04/01 09:25:10;;;;;;;;;;;;;;;21.37;37.74;100087.97;4963240;28;4087;-55
2022/04/01 09:27:38;;;;;;;;;;;;;;;21.27;37.86;100086.25;4967825;28;4172;-55
2022/04/01 09:30:04;;;;;;;;;;;;;;;21.31;37.86;100092.16;4974767;28;4227;-56
2022/04/01 09:32:41;;;;;;;;;;;;;;;21.38;37.80;100098.09;4976582;28;4224;-56
2022/04/01 09:35:08;;;;;;;;;;;;;;;21.36;37.89;100092.28;4971885;28;4173;-56
2022/04/01 09:37:35;;;;;;;;;;;;;;;21.37;38.05;100096.63;4971316;28;4095;-55
2022/04/01 09:40:01;;;;;;;;;;;;;;;21.50;38.06;100101.34;4969125;28;4045;-61
2022/04/01 09:42:28;;;;;;;;;;;;;;;21.49;38.13;100102.78;4973717;28;4170;-57
2022/04/01 09:44:57;;;;;;;;;;;;;;;21.62;38.03;100104.59;4974031;28;4438;-59
2022/04/01 09:47:23;;;;;;;;;;;;;;;21.56;38.36;100110.19;4973427;28;4049;-60
2022/04/01 09:49:52;;;;;;;;;;;;;;;21.64;37.85;100098.88;4975342;28;4149;-60
2022/04/01 09:52:20;;;;;;;;;;;;;;;21.71;38.01;100103.41;4973761;28;4217;-59
2022/04/01 09:54:47;;;;;;;;;;;;;;;21.65;37.98;100109.00;4974021;28;4246;-56
2022/04/01 09:57:14;;;;;;;;;;;;;;;21.71;38.14;100108.44;4975599;28;4223;-57
2022/04/01 09:59:41;;;;;;;;;;;;;;;21.70;38.07;100107.72;4979788;28;4669;-58
2022/04/01 10:02:07;;;;;;;;;;;;;;;21.66;38.09;100106.88;4975473;28;4380;-58
2022/04/01 10:04:34;;;;;;;;;;;;;;;21.58;37.79;100115.25;4975775;28;4200;-55
2022/04/01 10:07:01;;;;;;;;;;;;;;;21.50;38.20;100107.84;4972835;28;4426;-57
2022/04/01 10:09:28;;;;;;;;;;;;;;;21.52;37.72;100115.81;4968760;28;4608;-57
2022/04/01 10:12:15;;;;;;;;;;;;;;;21.67;38.08;100114.84;4973849;28;6588;-53
2022/04/01 10:14:42;;;;;;;;;;;;;;;21.66;38.23;100124.88;4974910;28;4316;-56
2022/04/01 10:17:23;;;;;;;;;;;;;;;21.78;37.99;100112.97;4977194;28;5114;-57
2022/04/01 10:19:50;;;;;;;;;;;;;;;21.60;38.00;100110.31;4978964;28;4128;-54
2022/04/01 10:22:17;;;;;;;;;;;;;;;21.27;38.00;100097.03;4971296;28;4294;-57
2022/04/01 10:24:44;;;;;;;;;;;;;;;21.10;37.91;100102.31;4978611;28;5488;-56
2022/04/01 10:27:13;;;;;;;;;;;;;;;21.04;38.13;100075.47;4975794;28;4208;-55
2022/04/01 10:29:40;;;;;;;;;;;;;;;21.03;37.97;100099.91;4974657;28;4773;-51
2022/04/01 10:32:25;;;;;;;;;;;;;;;21.18;37.87;100101.81;4970579;28;4254;-55
2022/04/01 10:34:53;;;;;;;;;;;;;;;21.19;37.32;100102.53;4971655;28;4256;-56
2022/04/01 10:37:21;;;;;;;;;;;;;;;21.23;36.84;100114.91;4973627;28;4190;-57
2022/04/01 10:39:48;;;;;;;;;;;;;;;21.61;35.89;100117.53;4978442;28;4018;-57
2022/04/01 10:42:16;;;;;;;;;;;;;;;21.76;34.27;100115.78;4978539;28;4232;-56
2022/04/01 10:45:09;;;;;;;;;;;;;;;21.84;32.63;100112.41;4977791;28;4138;-56
2022/04/01 10:53:37;;;;;;;;;;;;;;;21.61;35.38;100111.78;4979425;28;4164;-55
2022/04/01 10:56:29;;;;;;;;;;;;;;;21.79;35.59;100114.44;4976715;28;4393;-54
2022/04/01 10:59:02;;;;;;;;;;;;;;;21.88;36.04;100115.41;4976844;28;4251;-56
2022/04/01 11:01:28;;;;;;;;;;;;;;;22.03;35.93;100114.38;4976681;28;6408;-56
2022/04/01 11:04:02;;;;;;;;;;;;;;;22.05;35.94;100116.59;4973679;28;4512;-57
2022/04/01 11:06:28;;;;;;;;;;;;;;;22.02;35.75;100112.19;4975192;28;4543;-55
2022/04/01 11:08:55;;;;;;;;;;;;;;;22.06;36.01;100107.28;4977789;28;4112;-57
2022/04/01 11:11:21;;;;;;;;;;;;;;;22.07;35.96;100108.75;4975963;28;4237;-58
2022/04/01 11:14:00;;;;;;;;;;;;;;;22.11;35.81;100113.91;4976174;28;4150;-54
2022/04/01 11:16:27;;;;;;;;;;;;;;;22.06;36.26;100118.81;4971768;28;4261;-55
2022/04/01 11:19:13;;;;;;;;;;;;;;;22.05;36.31;100114.44;4976067;28;4202;-58
2022/04/01 11:21:39;;;;;;;;;;;;;;;22.08;36.18;100112.34;4978328;28;4122;-58
2022/04/01 11:24:22;;;;;;;;;;;;;;;22.08;36.06;100115.22;4973438;28;4367;-56
2022/04/01 11:26:48;;;;;;;;;;;;;;;22.05;36.31;100105.78;4969704;28;4392;-56
2022/04/01 11:29:16;;;;;;;;;;;;;;;22.09;35.94;100100.16;4979612;28;4031;-56
2022/04/01 11:31:43;;;;;;;;;;;;;;;22.11;36.06;100108.13;4980070;28;4246;-52
2022/04/01 11:34:10;;;;;;;;;;;;;;;22.15;36.06;100108.97;4975060;28;4717;-55
2022/04/01 11:36:37;;;;;;;;;;;;;;;22.16;36.14;100106.81;4972879;28;4085;-58
2022/04/01 11:39:04;;;;;;;;;;;;;;;21.92;34.31;100098.22;4975054;28;4548;-53
2022/04/01 11:41:48;;;;;;;;;;;;;;;21.93;34.97;100099.72;4974135;28;4569;-50
2022/04/01 11:44:15;;;;;;;;;;;;;;;22.00;35.51;100104.22;4976038;28;4182;-53
2022/04/01 11:46:41;;;;;;;;;;;;;;;21.72;35.79;100093.38;4972936;28;4186;-56
2022/04/01 11:49:09;;;;;;;;;;;;;;;21.89;35.98;100100.31;4978131;28;4198;-49
2022/04/01 11:51:36;;;;;;;;;;;;;;;21.71;35.97;100091.16;4978538;28;5339;-56
2022/04/01 11:54:03;;;;;;;;;;;;;;;21.94;35.97;100101.16;4975663;28;4274;-55
2022/04/01 11:56:29;;;;;;;;;;;;;;;22.07;35.84;100099.34;4975599;28;4044;-53
2022/04/01 11:58:59;;;;;;;;;;;;;;;22.01;36.14;100105.69;4975985;28;4068;-57
2022/04/01 12:01:30;;;;;;;;;;;;;;;21.83;35.76;100096.53;4976072;28;4202;-57
2022/04/01 12:04:09;;;;;;;;;;;;;;;21.75;35.99;100112.19;4975784;28;4207;-55
2022/04/01 12:09:27;;;;;;;;;;;;;;;21.90;36.35;100098.19;4968480;28;5848;-51
2022/04/01 12:11:53;;;;;;;;;;;;;;;21.93;36.40;100105.47;4969177;28;4320;-55
2022/04/01 12:14:24;;;;;;;;;;;;;;;21.87;36.13;100103.13;4974189;28;5780;-57
2022/04/01 12:16:50;;;;;;;;;;;;;;;21.79;36.05;100090.66;4967775;28;4326;-57
2022/04/01 12:19:20;;;;;;;;;;;;;;;21.87;36.19;100096.66;4972028;28;4233;-57
2022/04/01 12:21:56;;;;;;;;;;;;;;;21.90;36.26;100089.53;4979643;28;4605;-57
2022/04/01 12:24:25;;;;;;;;;;;;;;;22.04;36.06;100087.03;4973370;28;4168;-56
2022/04/01 12:26:52;;;;;;;;;;;;;;;22.12;36.21;100081.47;4976121;28;4716;-55
2022/04/01 12:29:22;;;;;;;;;;;;;;;22.03;36.47;100085.56;4978254;28;4496;-57
2022/04/01 12:31:49;;;;;;;;;;;;;;;22.05;36.06;100071.19;4977941;28;4162;-56
2022/04/01 12:34:15;;;;;;;;;;;;;;;21.59;36.09;100059.84;4977647;28;4211;-59
2022/04/01 12:36:41;;;;;;;;;;;;;;;21.66;36.31;100067.25;4976490;28;5346;-58
2022/04/01 12:39:10;;;;;;;;;;;;;;;21.83;36.23;100073.47;4967991;28;5319;-59
2022/04/01 12:41:50;;;;;;;;;;;;;;;21.96;36.04;100072.41;4975145;28;4240;-57
2022/04/01 12:44:16;;;;;;;;;;;;;;;21.90;32.66;100086.66;4973290;28;4295;-56
2022/04/01 12:46:46;;;;;;;;;;;;;;;22.02;34.56;100077.59;4971932;28;4237;-53
2022/04/01 12:49:13;;;;;;;;;;;;;;;22.09;35.14;100093.66;4974109;28;4236;-54
2022/04/01 12:51:47;;;;;;;;;;;;;;;22.06;35.10;100078.44;4966802;28;4657;-53
2022/04/01 12:54:22;;;;;;;;;;;;;;;22.17;35.46;100077.31;4964190;28;5016;-53
2022/04/01 12:56:49;;;;;;;;;;;;;;;22.18;35.35;100081.66;4970485;28;4538;-54
2022/04/01 12:59:16;;;;;;;;;;;;;;;22.23;35.38;100078.91;4971358;28;4479;-53
2022/04/01 13:01:43;;;;;;;;;;;;;;;22.25;35.24;100076.81;4973848;28;5574;-55
2022/04/01 13:04:19;;;;;;;;;;;;;;;22.24;35.59;100072.47;4975835;28;4183;-56
2022/04/01 13:07:08;;;;;;;;;;;;;;;22.23;35.54;100090.44;4968964;28;4333;-57
2022/04/01 13:09:51;;;;;;;;;;;;;;;22.23;35.63;100087.56;4975803;28;4246;-55
2022/04/01 13:12:18;;;;;;;;;;;;;;;22.24;35.42;100086.88;4964590;28;4235;-57
2022/04/01 13:14:45;;;;;;;;;;;;;;;22.25;35.61;100093.38;4971191;28;5116;-51
2022/04/01 13:17:12;;;;;;;;;;;;;;;22.28;35.76;100086.25;4972070;28;4244;-56
2022/04/01 13:19:40;;;;;;;;;;;;;;;22.26;35.80;100091.97;4970665;28;5401;-53
2022/04/01 13:22:07;;;;;;;;;;;;;;;22.29;35.46;100091.34;4969198;28;4005;-58
2022/04/01 13:24:34;;;;;;;;;;;;;;;22.23;35.74;100087.56;4972137;28;4193;-57